createdAt,value
2022-10-13T00:01:29.729Z,22.03
2022-10-13T00:03:51.777Z,20.00
2022-10-13T00:06:21.225Z,24.43
2022-10-13T00:08:43.438Z,22.17
2022-10-13T00:11:26.950Z,22.63
2022-10-13T00:13:50.423Z,19.20
2022-10-13T00:16:15.500Z,26.50
2022-10-13T00:18:38.461Z,22.63
2022-10-13T00:21:00.280Z,22.83
2022-10-13T00:23:22.282Z,18.53
2022-10-13T00:25:47.887Z,22.23
2022-10-13T00:28:10.418Z,19.67
2022-10-13T00:30:36.039Z,23.10
2022-10-13T00:32:57.939Z,21.83
2022-10-13T00:35:19.768Z,23.33
2022-10-13T00:37:41.543Z,32.17
2022-10-13T00:40:04.334Z,25.53
2022-10-13T00:42:27.138Z,22.60
2022-10-13T00:45:00.255Z,22.90
2022-10-13T00:47:22.351Z,23.57
2022-10-13T00:49:44.508Z,23.57
2022-10-13T00:52:06.459Z,21.67
2022-10-13T00:54:29.710Z,20.43
2022-10-13T00:56:53.978Z,25.53
2022-10-13T00:59:23.506Z,20.98
2022-10-13T01:01:49.237Z,24.67
2022-10-13T01:04:11.658Z,22.97
2022-10-13T01:06:34.385Z,22.50
2022-10-13T01:08:56.226Z,26.40
2022-10-13T01:11:49.929Z,22.33
2022-10-13T01:14:31.612Z,25.10
2022-10-13T01:17:21.098Z,16.73
2022-10-13T01:20:28.915Z,19.43
2022-10-13T01:23:33.354Z,18.15
2022-10-13T01:26:23.140Z,20.90
2022-10-13T01:29:05.402Z,20.37
2022-10-13T01:31:46.070Z,20.87
2022-10-13T01:34:41.493Z,18.73
2022-10-13T01:37:53.378Z,20.52
2022-10-13T01:40:37.186Z,20.43
2022-10-13T01:43:10.793Z,18.47
2022-10-13T01:45:51.375Z,18.43
2022-10-13T01:48:15.822Z,19.73
2022-10-13T01:50:39.472Z,18.05
2022-10-13T01:53:05.284Z,18.97
2022-10-13T01:55:28.978Z,19.17
2022-10-13T01:57:50.739Z,18.88
2022-10-13T02:00:21.113Z,21.63
2022-10-13T02:03:31.211Z,20.53
2022-10-13T02:06:10.530Z,17.60
2022-10-13T02:08:46.335Z,22.60
2022-10-13T02:11:19.721Z,16.87
2022-10-13T02:14:03.464Z,20.17
2022-10-13T02:16:31.924Z,19.43
2022-10-13T02:18:57.004Z,18.87
2022-10-13T02:21:19.262Z,19.03
2022-10-13T02:23:43.376Z,21.23
2022-10-13T02:26:05.662Z,20.80
2022-10-13T02:28:29.247Z,18.70
2022-10-13T02:30:51.783Z,21.23
2022-10-13T02:33:15.422Z,18.90
2022-10-13T02:35:37.395Z,19.33
2022-10-13T02:37:59.759Z,20.23
2022-10-13T02:40:21.568Z,20.63
2022-10-13T02:42:44.010Z,17.90
2022-10-13T02:45:07.058Z,20.13
2022-10-13T02:47:28.961Z,20.60
2022-10-13T02:49:50.714Z,20.43
2022-10-13T02:52:12.555Z,19.83
2022-10-13T02:54:36.869Z,18.00
2022-10-13T02:56:58.730Z,22.60
2022-10-13T02:59:20.464Z,16.90
2022-10-13T03:01:44.309Z,18.87
2022-10-13T03:04:06.097Z,19.10
2022-10-13T03:06:27.815Z,19.87
2022-10-13T03:08:49.596Z,18.07
2022-10-13T03:11:11.409Z,18.10
2022-10-13T03:13:33.551Z,18.30
2022-10-13T03:16:01.232Z,20.93
2022-10-13T03:18:23.065Z,16.97
2022-10-13T03:20:44.901Z,18.00
2022-10-13T03:23:07.105Z,18.00
2022-10-13T03:25:29.086Z,22.27
2022-10-13T03:27:51.855Z,20.20
2022-10-13T03:30:14.007Z,19.73
2022-10-13T03:32:35.734Z,21.10
2022-10-13T03:34:57.498Z,19.10
2022-10-13T03:37:19.295Z,19.17
2022-10-13T03:39:41.226Z,19.10
2022-10-13T03:42:03.575Z,18.00
2022-10-13T03:44:25.736Z,16.33
2022-10-13T03:46:47.542Z,19.67
2022-10-13T03:49:11.504Z,18.97
2022-10-13T03:51:33.652Z,17.63
2022-10-13T03:53:55.450Z,19.40
2022-10-13T03:56:25.393Z,18.13
2022-10-13T03:58:47.362Z,19.13
2022-10-13T04:01:10.548Z,19.43
2022-10-13T04:03:35.138Z,19.93
2022-10-13T04:06:05.306Z,16.70
2022-10-13T04:08:27.868Z,25.10
2022-10-13T04:11:02.437Z,19.20
2022-10-13T04:13:24.278Z,18.50
2022-10-13T04:15:46.794Z,17.13
2022-10-13T04:18:10.729Z,22.17
2022-10-13T04:20:36.723Z,20.60
2022-10-13T04:22:58.516Z,21.83
2022-10-13T04:25:20.262Z,22.13
2022-10-13T04:27:42.109Z,17.23
2022-10-13T04:30:06.743Z,21.07
2022-10-13T04:32:28.484Z,18.63
2022-10-13T04:34:50.557Z,21.00
2022-10-13T04:37:12.613Z,20.77
2022-10-13T04:39:34.570Z,21.07
2022-10-13T04:41:56.375Z,29.77
2022-10-13T04:44:18.173Z,17.80
2022-10-13T04:46:39.984Z,19.53
2022-10-13T04:49:01.909Z,17.67
2022-10-13T04:51:27.346Z,20.00
2022-10-13T04:53:55.005Z,18.77
2022-10-13T04:56:18.263Z,20.33
2022-10-13T04:58:41.778Z,19.73
2022-10-13T05:01:07.846Z,19.67
2022-10-13T05:03:29.682Z,21.63
2022-10-13T05:05:52.724Z,27.60
2022-10-13T05:08:14.531Z,19.00
2022-10-13T05:10:36.419Z,20.83
2022-10-13T05:12:58.209Z,20.47
2022-10-13T05:15:20.196Z,18.30
2022-10-13T05:17:41.948Z,22.57
2022-10-13T05:20:04.468Z,20.30
2022-10-13T05:22:28.403Z,21.27
2022-10-13T05:24:50.217Z,20.08
2022-10-13T05:27:13.831Z,20.93
2022-10-13T05:29:37.066Z,22.17
2022-10-13T05:31:58.871Z,20.60
2022-10-13T05:34:20.643Z,24.27
2022-10-13T05:36:42.563Z,25.07
2022-10-13T05:39:09.654Z,20.90
2022-10-13T05:41:32.025Z,19.70
2022-10-13T05:43:58.998Z,21.03
2022-10-13T05:46:20.924Z,19.70
2022-10-13T05:48:42.907Z,19.90
2022-10-13T05:51:16.579Z,23.00
2022-10-13T05:53:50.251Z,22.53
2022-10-13T05:56:22.529Z,22.20
2022-10-13T05:58:50.458Z,23.80
2022-10-13T06:01:19.469Z,21.97
2022-10-13T06:03:44.946Z,24.20
2022-10-13T06:06:07.302Z,22.63
2022-10-13T06:08:30.252Z,23.07
2022-10-13T06:10:52.161Z,20.80
2022-10-13T06:13:14.751Z,25.30
2022-10-13T06:15:36.803Z,23.00
2022-10-13T06:17:59.115Z,31.00
2022-10-13T06:20:20.882Z,21.13
2022-10-13T06:22:42.667Z,21.30
2022-10-13T06:25:07.207Z,30.03
2022-10-13T06:29:52.334Z,22.33
2022-10-13T06:32:14.191Z,24.17
2022-10-13T06:34:36.021Z,25.80
2022-10-13T06:36:58.182Z,26.17
2022-10-13T06:39:20.175Z,24.73
2022-10-13T06:41:42.045Z,24.67
2022-10-13T06:44:04.142Z,24.53
2022-10-13T06:46:26.102Z,21.80
2022-10-13T06:48:52.244Z,25.80
2022-10-13T06:51:15.381Z,19.87
2022-10-13T06:53:37.881Z,20.93
2022-10-13T06:56:02.002Z,20.17
2022-10-13T06:58:23.817Z,24.65
2022-10-13T07:00:45.665Z,22.87
2022-10-13T07:03:08.583Z,22.97
2022-10-13T07:05:31.395Z,23.20
2022-10-13T07:07:56.526Z,21.10
2022-10-13T07:10:18.537Z,24.40
2022-10-13T07:12:41.040Z,21.40
2022-10-13T07:15:03.126Z,25.63
2022-10-13T07:17:25.073Z,23.83
2022-10-13T07:19:48.676Z,24.93
2022-10-13T07:22:10.508Z,27.30
2022-10-13T07:24:32.309Z,23.77
2022-10-13T07:26:54.080Z,22.40
2022-10-13T07:29:16.184Z,22.27
2022-10-13T07:31:38.135Z,22.90
2022-10-13T07:34:00.669Z,20.83
2022-10-13T07:36:23.633Z,20.73
2022-10-13T07:38:46.923Z,22.03
2022-10-13T07:41:11.948Z,23.60
2022-10-13T07:43:33.899Z,23.10
2022-10-13T07:46:01.838Z,22.13
2022-10-13T07:48:23.768Z,24.60
2022-10-13T07:50:45.736Z,23.23
2022-10-13T07:53:07.553Z,22.97
2022-10-13T07:55:29.466Z,23.83
2022-10-13T07:57:51.259Z,25.50
2022-10-13T08:00:13.586Z,23.87
2022-10-13T08:02:35.981Z,20.20
2022-10-13T08:04:59.178Z,20.87
2022-10-13T08:07:21.197Z,34.57
2022-10-13T08:09:44.980Z,22.08
2022-10-13T08:12:06.958Z,23.57
2022-10-13T08:14:30.848Z,20.83
2022-10-13T08:16:53.729Z,22.20
2022-10-13T08:19:22.157Z,26.03
2022-10-13T08:21:58.274Z,23.17
2022-10-13T08:24:24.405Z,25.27
2022-10-13T08:26:47.139Z,24.73
2022-10-13T08:29:21.387Z,24.77
2022-10-13T08:31:45.255Z,22.93
2022-10-13T08:34:08.239Z,22.87
2022-10-13T08:36:30.167Z,28.10
2022-10-13T08:38:53.511Z,22.30
2022-10-13T08:41:21.502Z,23.50
2022-10-13T08:44:47.535Z,21.93
2022-10-13T08:47:07.043Z,22.40
2022-10-13T08:49:30.907Z,21.80
2022-10-13T08:51:54.044Z,25.80
2022-10-13T08:54:20.702Z,21.30
2022-10-13T08:56:43.125Z,21.10
2022-10-13T08:59:06.802Z,19.23
2022-10-13T09:01:37.358Z,20.40
2022-10-13T09:04:26.903Z,22.17
2022-10-13T09:06:56.845Z,18.13
2022-10-13T09:09:19.083Z,21.40
2022-10-13T09:11:45.307Z,19.80
2022-10-13T09:14:20.588Z,19.87
2022-10-13T09:16:44.985Z,22.87
2022-10-13T09:19:20.419Z,21.65
2022-10-13T09:21:42.439Z,21.57
2022-10-13T09:24:15.257Z,22.53
2022-10-13T09:26:38.953Z,21.07
2022-10-13T09:29:10.504Z,23.25
2022-10-13T09:31:33.849Z,20.67
2022-10-13T09:34:03.352Z,17.27
2022-10-13T09:36:25.862Z,24.17
2022-10-13T09:39:16.381Z,17.95
2022-10-13T09:41:42.495Z,21.40
2022-10-13T09:44:16.703Z,24.03
2022-10-13T09:46:54.942Z,21.38
2022-10-13T09:49:37.674Z,20.27
2022-10-13T09:52:19.079Z,19.03
2022-10-13T09:54:46.957Z,21.60
2022-10-13T09:57:48.391Z,22.53
2022-10-13T10:00:28.697Z,20.67
2022-10-13T10:03:18.634Z,21.80
2022-10-13T10:05:46.329Z,20.10
2022-10-13T10:09:08.376Z,24.63
2022-10-13T10:11:49.277Z,19.80
2022-10-13T10:14:31.745Z,22.63
2022-10-13T10:17:15.127Z,21.47
2022-10-13T10:19:42.923Z,21.87
2022-10-13T10:22:26.267Z,18.70
2022-10-13T10:25:00.262Z,17.03
2022-10-13T10:27:38.919Z,21.63
2022-10-13T10:30:17.824Z,20.20
2022-10-13T10:33:11.113Z,28.83
2022-10-13T10:36:07.339Z,18.77
2022-10-13T10:38:45.650Z,18.27
2022-10-13T10:41:36.668Z,22.00
2022-10-13T10:44:10.966Z,20.53
2022-10-13T10:46:39.809Z,23.95
2022-10-13T10:49:19.914Z,19.90
2022-10-13T10:51:43.759Z,17.57
2022-10-13T10:54:30.327Z,19.48
2022-10-13T10:57:08.492Z,17.87
2022-10-13T10:59:49.981Z,22.60
2022-10-13T11:02:37.912Z,17.23
2022-10-13T11:05:05.286Z,23.87
2022-10-13T11:07:28.367Z,19.00
2022-10-13T11:09:50.688Z,18.07
2022-10-13T11:12:23.015Z,21.07
2022-10-13T11:14:54.393Z,24.17
2022-10-13T11:17:29.498Z,19.13
2022-10-13T11:19:51.515Z,21.50
2022-10-13T11:22:21.165Z,18.03
2022-10-13T11:24:47.834Z,18.23
2022-10-13T11:27:12.328Z,18.77
2022-10-13T11:30:01.796Z,20.20
2022-10-13T11:32:26.879Z,19.73
2022-10-13T11:35:08.018Z,19.13
2022-10-13T11:38:07.741Z,21.13
2022-10-13T11:40:58.231Z,18.90
2022-10-13T11:43:47.248Z,20.73
2022-10-13T11:46:24.724Z,16.03
2022-10-13T11:49:17.487Z,22.00
2022-10-13T11:52:13.050Z,19.63
2022-10-13T11:54:53.690Z,21.23
2022-10-13T11:57:25.350Z,20.20
2022-10-13T11:59:51.474Z,21.97
2022-10-13T12:02:19.399Z,22.83
2022-10-13T12:04:46.550Z,21.98
2022-10-13T12:07:14.372Z,19.97
2022-10-13T12:09:53.861Z,20.47
2022-10-13T12:12:20.914Z,21.00
2022-10-13T12:14:47.743Z,20.67
2022-10-13T12:17:27.011Z,19.97
2022-10-13T12:19:50.150Z,23.07
2022-10-13T12:22:13.913Z,23.03
2022-10-13T12:24:37.152Z,21.50
2022-10-13T12:27:09.747Z,18.90
2022-10-13T12:29:37.056Z,18.63
2022-10-13T12:31:59.843Z,21.70
2022-10-13T12:34:27.756Z,21.50
2022-10-13T12:37:01.525Z,22.43
2022-10-13T12:39:25.669Z,23.10
2022-10-13T12:41:49.408Z,21.05
2022-10-13T12:44:20.955Z,23.40
2022-10-13T12:46:59.079Z,20.73
2022-10-13T12:49:24.665Z,24.07
2022-10-13T12:51:51.218Z,21.80
2022-10-13T12:54:24.451Z,19.20
2022-10-13T12:56:46.903Z,21.80
2022-10-13T12:59:17.904Z,20.50
2022-10-13T13:01:42.735Z,18.57
2022-10-13T13:04:23.129Z,18.60
2022-10-13T13:07:04.732Z,20.50
2022-10-13T13:09:36.954Z,16.87
2022-10-13T13:12:06.879Z,24.27
2022-10-13T13:14:49.399Z,23.63
2022-10-13T13:17:23.514Z,26.80
2022-10-13T13:19:57.421Z,18.10
2022-10-13T13:22:20.194Z,19.95
2022-10-13T13:24:42.705Z,22.03
2022-10-13T13:27:36.406Z,21.20
2022-10-13T13:29:58.618Z,21.57
2022-10-13T13:32:24.218Z,20.97
2022-10-13T13:34:47.053Z,18.43
2022-10-13T13:37:18.305Z,21.08
2022-10-13T13:39:41.184Z,18.27
2022-10-13T13:42:03.361Z,19.37
2022-10-13T13:44:25.255Z,19.03
2022-10-13T13:46:47.125Z,21.13
2022-10-13T13:49:11.590Z,21.87
2022-10-13T13:51:33.615Z,21.83
2022-10-13T13:53:55.783Z,20.23
2022-10-13T13:56:20.583Z,20.70
2022-10-13T13:58:43.639Z,21.37
2022-10-13T14:01:08.426Z,21.73
2022-10-13T14:03:30.268Z,19.73
2022-10-13T14:05:52.203Z,21.50
2022-10-13T14:08:14.042Z,20.40
2022-10-13T14:10:35.868Z,20.50
2022-10-13T14:12:57.711Z,24.23
2022-10-13T14:15:23.383Z,20.90
2022-10-13T14:17:47.645Z,17.47
2022-10-13T14:20:10.750Z,20.93
2022-10-13T14:22:33.078Z,21.83
2022-10-13T14:24:55.128Z,21.37
2022-10-13T14:27:17.077Z,22.27
2022-10-13T14:29:39.046Z,20.93
2022-10-13T14:32:01.112Z,22.10
2022-10-13T14:34:23.077Z,21.10
2022-10-13T14:36:44.872Z,20.37
2022-10-13T14:39:07.092Z,20.23
2022-10-13T14:41:29.239Z,22.07
2022-10-13T14:43:55.703Z,23.57
2022-10-13T14:46:17.491Z,20.67
2022-10-13T14:48:39.541Z,23.00
2022-10-13T14:51:10.667Z,24.83
2022-10-13T14:53:35.533Z,22.00
2022-10-13T14:55:57.365Z,23.23
2022-10-13T14:58:19.307Z,21.17
2022-10-13T15:00:43.423Z,22.13
2022-10-13T15:03:05.170Z,22.13
2022-10-13T15:05:26.999Z,21.07
2022-10-13T15:07:48.864Z,21.67
2022-10-13T15:10:10.776Z,17.97
2022-10-13T15:12:32.885Z,16.97
2022-10-13T15:14:54.782Z,17.37
2022-10-13T15:17:16.657Z,19.80
2022-10-13T15:19:38.423Z,19.67
2022-10-13T15:22:00.861Z,23.40
2022-10-13T15:24:22.803Z,23.17
2022-10-13T15:29:09.524Z,18.87
2022-10-13T15:31:31.468Z,21.93
2022-10-13T15:33:54.156Z,21.33
2022-10-13T15:36:16.242Z,22.93
2022-10-13T15:38:38.249Z,21.43
2022-10-13T15:41:02.436Z,20.87
2022-10-13T15:43:24.207Z,20.30
2022-10-13T15:45:57.091Z,19.93
2022-10-13T15:48:19.064Z,22.40
2022-10-13T15:50:41.228Z,18.87
2022-10-13T15:53:03.279Z,19.67
2022-10-13T15:55:25.502Z,20.33
2022-10-13T15:57:47.498Z,24.27
2022-10-13T16:00:14.219Z,23.60
2022-10-13T16:02:36.419Z,23.43
2022-10-13T16:05:01.630Z,24.40
2022-10-13T16:07:23.542Z,24.37
2022-10-13T16:09:45.758Z,30.53
2022-10-13T16:12:07.720Z,26.57
2022-10-13T16:14:29.542Z,26.20
2022-10-13T16:16:53.417Z,23.17
2022-10-13T16:19:15.283Z,21.37
2022-10-13T16:21:37.837Z,23.00
2022-10-13T16:24:00.076Z,26.30
2022-10-13T16:26:22.305Z,23.73
2022-10-13T16:28:45.663Z,24.40
2022-10-13T16:31:14.472Z,24.77
2022-10-13T16:33:37.639Z,26.27
2022-10-13T16:36:10.493Z,24.67
2022-10-13T16:38:35.049Z,24.70
2022-10-13T16:40:56.966Z,23.85
2022-10-13T16:43:18.779Z,22.53
2022-10-13T16:46:02.946Z,22.23
2022-10-13T16:48:27.853Z,23.27
2022-10-13T16:50:50.882Z,25.50
2022-10-13T16:53:14.267Z,28.50
2022-10-13T16:55:40.290Z,23.93
2022-10-13T16:58:02.195Z,26.33
2022-10-13T17:00:24.068Z,24.97
2022-10-13T17:02:45.940Z,23.60
2022-10-13T17:05:07.995Z,23.37
2022-10-13T17:07:29.873Z,23.53
2022-10-13T17:09:51.849Z,27.10
2022-10-13T17:12:13.660Z,25.70
2022-10-13T17:14:35.536Z,27.17
2022-10-13T17:16:58.145Z,21.53
2022-10-13T17:19:20.233Z,26.97
2022-10-13T17:21:43.471Z,23.03
2022-10-13T17:24:05.692Z,25.90
2022-10-13T17:26:28.531Z,22.60
2022-10-13T17:28:50.747Z,25.67
2022-10-13T17:31:15.645Z,22.33
2022-10-13T17:33:39.489Z,24.13
2022-10-13T17:36:12.632Z,24.67
2022-10-13T17:38:35.270Z,26.13
2022-10-13T17:41:07.909Z,24.47
2022-10-13T17:43:34.555Z,25.58
2022-10-13T17:46:34.378Z,25.77
2022-10-13T17:48:51.162Z,24.95
2022-10-13T17:51:17.505Z,25.20
2022-10-13T17:53:41.966Z,24.07
2022-10-13T17:56:13.648Z,28.07
2022-10-13T17:58:37.529Z,20.80
2022-10-13T18:01:13.088Z,25.35
2022-10-13T18:03:37.472Z,30.37
2022-10-13T18:05:59.330Z,23.63
2022-10-13T18:08:21.339Z,27.00
2022-10-13T18:11:07.010Z,22.80
2022-10-13T18:13:25.209Z,25.70
2022-10-13T18:15:47.023Z,31.00
2022-10-13T18:18:10.991Z,25.97
2022-10-13T18:20:36.957Z,26.73
2022-10-13T18:22:59.575Z,23.47
2022-10-13T18:25:22.757Z,26.40
2022-10-13T18:27:44.514Z,28.57
2022-10-13T18:30:07.161Z,30.33
2022-10-13T18:32:31.206Z,28.98
2022-10-13T18:34:56.371Z,28.47
2022-10-13T18:37:18.325Z,30.23
2022-10-13T18:39:40.842Z,33.13
2022-10-13T18:42:02.648Z,29.70
2022-10-13T18:44:31.053Z,33.30
2022-10-13T18:46:54.993Z,31.03
2022-10-13T18:49:19.149Z,31.02
2022-10-13T18:51:41.590Z,31.80
2022-10-13T18:54:05.116Z,38.07
2022-10-13T18:56:30.428Z,36.13
2022-10-13T18:58:59.278Z,34.83
2022-10-13T19:01:24.232Z,38.13
2022-10-13T19:06:13.011Z,34.90
2022-10-13T19:08:37.347Z,37.60
2022-10-13T19:10:59.342Z,39.77
2022-10-13T19:13:21.196Z,37.93
2022-10-13T19:15:43.347Z,37.87
2022-10-13T19:18:06.284Z,38.50
2022-10-13T19:20:28.142Z,39.37
2022-10-13T19:22:53.558Z,39.30
2022-10-13T19:25:15.901Z,41.37
2022-10-13T19:27:37.796Z,37.83
2022-10-13T19:29:59.766Z,38.03
2022-10-13T19:32:21.667Z,37.93
2022-10-13T19:34:43.471Z,42.97
2022-10-13T19:37:07.430Z,40.00
2022-10-13T19:39:29.375Z,40.77
2022-10-13T19:41:56.345Z,41.40
2022-10-13T19:44:20.116Z,41.30
2022-10-13T19:46:46.866Z,39.70
2022-10-13T19:49:10.639Z,41.37
2022-10-13T19:51:37.401Z,40.37
2022-10-13T19:53:59.206Z,40.10
2022-10-13T19:56:34.139Z,41.20
2022-10-13T20:01:19.098Z,37.83
2022-10-13T20:03:41.085Z,38.93
2022-10-13T20:06:07.108Z,43.63
2022-10-13T20:08:33.395Z,42.53
2022-10-13T20:10:56.549Z,45.97
2022-10-13T20:13:18.329Z,44.83
2022-10-13T20:18:06.722Z,43.00
2022-10-13T20:20:28.859Z,42.33
2022-10-13T20:22:52.721Z,45.85
2022-10-13T20:25:15.931Z,43.20
2022-10-13T20:27:37.812Z,49.90
2022-10-13T20:29:59.914Z,46.00
2022-10-13T20:32:22.070Z,49.97
2022-10-13T20:34:44.558Z,46.90
2022-10-13T20:37:06.393Z,50.83
2022-10-13T20:39:28.227Z,48.37
2022-10-13T20:41:50.037Z,49.63
2022-10-13T20:44:12.292Z,50.67
2022-10-13T20:46:34.243Z,52.70
2022-10-13T20:49:13.081Z,52.37
2022-10-13T20:51:35.721Z,51.20
2022-10-13T20:53:57.952Z,50.67
2022-10-13T20:56:24.359Z,53.27
2022-10-13T20:58:47.518Z,53.07
2022-10-13T21:01:09.739Z,52.33
2022-10-13T21:03:31.611Z,55.40
2022-10-13T21:06:03.858Z,51.90
2022-10-13T21:08:25.654Z,51.47
2022-10-13T21:10:48.576Z,53.13
2022-10-13T21:13:15.365Z,53.20
2022-10-13T21:15:40.050Z,53.13
2022-10-13T21:18:01.827Z,51.40
2022-10-13T21:20:24.013Z,54.30
2022-10-13T21:22:45.880Z,50.03
2022-10-13T21:25:08.391Z,53.23
2022-10-13T21:27:30.200Z,50.33
2022-10-13T21:29:51.965Z,49.67
2022-10-13T21:32:13.852Z,58.00
2022-10-13T21:34:38.984Z,52.80
2022-10-13T21:37:00.749Z,57.00
2022-10-13T21:39:22.492Z,56.83
2022-10-13T21:41:44.383Z,58.03
2022-10-13T21:44:06.199Z,52.30
2022-10-13T21:46:32.970Z,59.07
2022-10-13T21:48:58.643Z,58.07
2022-10-13T21:51:29.266Z,54.73
2022-10-13T21:53:54.743Z,56.20
2022-10-13T21:56:17.318Z,57.57
2022-10-13T21:58:39.313Z,54.70
2022-10-13T22:01:03.839Z,57.17
2022-10-13T22:05:47.439Z,56.93
2022-10-13T22:08:09.229Z,56.30
2022-10-13T22:10:31.021Z,60.93
2022-10-13T22:12:52.768Z,57.80
2022-10-13T22:15:14.820Z,60.17
2022-10-13T22:17:36.595Z,57.07
2022-10-13T22:20:00.961Z,57.50
2022-10-13T22:22:25.357Z,55.97
2022-10-13T22:24:49.246Z,48.87
2022-10-13T22:27:11.046Z,50.47
2022-10-13T22:29:32.905Z,49.93
2022-10-13T22:32:00.017Z,46.67
2022-10-13T22:34:21.948Z,47.80
2022-10-13T22:36:45.215Z,53.13
2022-10-13T22:39:07.408Z,56.80
2022-10-13T22:41:29.703Z,54.00
2022-10-13T22:43:57.778Z,53.37
2022-10-13T22:46:23.345Z,54.07
2022-10-13T22:48:45.624Z,58.27
2022-10-13T22:51:10.183Z,70.23
2022-10-13T22:53:33.974Z,58.90
2022-10-13T22:55:56.056Z,55.42
2022-10-13T22:58:17.821Z,57.17
2022-10-13T23:00:40.293Z,54.40
2022-10-13T23:03:03.300Z,58.50
2022-10-13T23:05:25.189Z,62.27
2022-10-13T23:07:47.004Z,56.73
2022-10-13T23:10:09.499Z,66.20
2022-10-13T23:12:32.343Z,59.00
2022-10-13T23:14:54.165Z,59.97
2022-10-13T23:17:16.103Z,57.13
2022-10-13T23:19:37.970Z,54.63
2022-10-13T23:21:59.758Z,52.20
2022-10-13T23:24:21.762Z,50.30
2022-10-13T23:26:43.666Z,53.63
2022-10-13T23:29:05.661Z,52.93
2022-10-13T23:31:28.447Z,49.30
2022-10-13T23:33:51.342Z,53.03
2022-10-13T23:36:23.445Z,51.20
2022-10-13T23:38:45.970Z,52.23
2022-10-13T23:41:12.102Z,51.20
2022-10-13T23:43:35.773Z,56.00
2022-10-13T23:45:57.594Z,51.17
2022-10-13T23:48:19.369Z,47.83
2022-10-13T23:50:41.211Z,52.80
2022-10-13T23:53:04.385Z,55.13
2022-10-13T23:55:26.244Z,58.27
2022-10-13T23:57:48.221Z,50.10
